Time;durP1;ratioP1;P1;durP2;ratioP2;P2;SDS_P1;SDS_P2;PMS_P1;PMS_P2;Temp;Humidity;BMP_temperature;BMP_pressure;BME280_temperature;BME280_humidity;BME280_pressure;Samples;Min_cycle;Max_cycle;Signal;HPM_P1;HPM_P2
2023/07/09 00:00:13;;;;;;;0.08;0.08;;;;;;;19.87;100.00;96890.50;5043779;28;20108;-79
2023/07/09 00:02:59;;;;;;;0.00;0.00;;;;;;;19.85;100.00;96895.44;5049863;28;20039;-79
2023/07/09 00:05:47;;;;;;;0.00;0.00;;;;;;;19.81;100.00;96891.69;5055958;28;20769;-79
2023/07/09 00:08:33;;;;;;;0.00;0.00;;;;;;;19.69;100.00;96890.25;5069168;28;20501;-79
2023/07/09 00:11:19;;;;;;;0.00;0.00;;;;;;;19.50;100.00;96886.72;5070546;28;20075;-79
2023/07/09 00:14:06;;;;;;;0.00;0.00;;;;;;;19.39;100.00;96888.00;5055467;28;20490;-79
2023/07/09 00:16:52;;;;;;;0.00;0.00;;;;;;;19.36;100.00;96886.66;5070628;28;20040;-79
2023/07/09 00:19:38;;;;;;;0.00;0.00;;;;;;;19.41;100.00;96889.31;5055127;28;20036;-79
2023/07/09 00:22:26;;;;;;;0.00;0.00;;;;;;;19.38;100.00;96902.66;5056606;28;20043;-79
2023/07/09 00:25:16;;;;;;;0.00;0.00;;;;;;;19.34;100.00;96899.72;5067823;28;20105;-79
2023/07/09 00:28:02;;;;;;;0.00;0.00;;;;;;;19.32;100.00;96898.41;5070445;28;20039;-79
2023/07/09 00:30:48;;;;;;;0.00;0.00;;;;;;;19.21;100.00;96893.09;5071710;28;20585;-79
2023/07/09 00:33:34;;;;;;;0.03;0.03;;;;;;;19.20;100.00;96899.63;5059462;28;20225;-79
2023/07/09 00:36:24;;;;;;;0.10;0.10;;;;;;;19.17;100.00;96900.22;5060513;28;20553;-79
2023/07/09 00:39:17;;;;;;;0.00;0.00;;;;;;;19.17;100.00;96902.94;5074281;28;20040;-79
2023/07/09 00:42:03;;;;;;;0.05;0.05;;;;;;;19.17;100.00;96904.84;5058811;28;20662;-79
2023/07/09 00:44:54;;;;;;;0.00;0.00;;;;;;;19.09;100.00;96902.78;5071860;28;20449;-79
2023/07/09 00:48:00;;;;;;;0.10;0.10;;;;;;;19.04;100.00;96897.44;5074414;28;20040;-79
2023/07/09 00:50:50;;;;;;;0.00;0.00;;;;;;;18.99;100.00;96903.75;5046657;28;20036;-79
2023/07/09 00:53:35;;;;;;;0.00;0.00;;;;;;;19.02;100.00;96900.44;5043306;28;20046;-79
2023/07/09 00:56:33;;;;;;;0.00;0.00;;;;;;;18.98;100.00;96887.75;5059109;28;20784;-79
2023/07/09 00:59:28;;;;;;;0.08;0.08;;;;;;;18.78;100.00;96892.34;5045645;28;20048;-79
2023/07/09 01:02:15;;;;;;;0.00;0.00;;;;;;;18.78;100.00;96897.78;5073587;28;20040;-79
2023/07/09 01:05:02;;;;;;;0.00;0.00;;;;;;;18.67;100.00;96893.56;5059768;28;20048;-79
2023/07/09 01:07:49;;;;;;;0.00;0.00;;;;;;;18.62;100.00;96891.69;5057794;28;20047;-79
2023/07/09 01:10:40;;;;;;;0.10;0.10;;;;;;;18.66;100.00;96894.66;5072678;28;20038;-79
2023/07/09 01:13:32;;;;;;;0.00;0.00;;;;;;;18.68;100.00;96897.06;5070704;28;20049;-79
2023/07/09 01:16:19;;;;;;;0.00;0.00;;;;;;;18.64;100.00;96896.81;5072989;28;20051;-79
2023/07/09 01:19:06;;;;;;;0.00;0.00;;;;;;;18.63;100.00;96893.31;5072929;28;20079;-79
2023/07/09 01:22:01;;;;;;;0.00;0.00;;;;;;;18.68;100.00;96897.91;5058091;28;20032;-79
2023/07/09 01:24:49;;;;;;;0.00;0.00;;;;;;;18.74;100.00;96898.63;5072061;28;20039;-79
2023/07/09 01:27:41;;;;;;;0.00;0.00;;;;;;;18.70;100.00;96892.19;5073544;28;20055;-79
2023/07/09 01:30:34;;;;;;;0.00;0.00;;;;;;;18.77;100.00;96892.66;5060119;28;20810;-79
2023/07/09 01:33:22;;;;;;;0.00;0.00;;;;;;;18.79;100.00;96893.97;5074113;28;20082;-79
2023/07/09 01:36:13;;;;;;;0.08;0.08;;;;;;;18.84;100.00;96890.38;5051969;28;20031;-79
2023/07/09 01:39:00;;;;;;;0.10;0.10;;;;;;;18.85;100.00;96886.56;5057850;28;20040;-79
2023/07/09 01:41:47;;;;;;;0.00;0.00;;;;;;;18.89;100.00;96890.31;5055967;28;20418;-79
2023/07/09 01:44:33;;;;;;;0.00;0.00;;;;;;;18.94;100.00;96903.81;5057343;28;20032;-78
2023/07/09 01:47:23;;;;;;;0.00;0.00;;;;;;;18.98;100.00;96902.09;5056649;28;20040;-78
2023/07/09 01:50:10;;;;;;;0.00;0.00;;;;;;;19.00;100.00;96902.66;5047837;28;20051;-79
2023/07/09 01:52:57;;;;;;;0.10;0.10;;;;;;;19.09;100.00;96897.38;5058352;28;20040;-80
2023/07/09 01:55:44;;;;;;;0.10;0.10;;;;;;;19.18;100.00;96901.84;5057355;28;20407;-80
2023/07/09 01:58:31;;;;;;;0.00;0.00;;;;;;;19.20;100.00;96896.13;5056214;28;20047;-80
2023/07/09 02:01:19;;;;;;;0.00;0.00;;;;;;;19.12;100.00;96896.78;5045278;28;20451;-80
2023/07/09 02:04:05;;;;;;;0.00;0.00;;;;;;;19.02;100.00;96903.16;5057716;28;20597;-80
2023/07/09 02:06:51;;;;;;;0.00;0.00;;;;;;;18.97;100.00;96902.41;5057973;28;20847;-79
2023/07/09 02:09:37;;;;;;;0.00;0.00;;;;;;;18.93;100.00;96911.13;5070754;28;20684;-80
2023/07/09 02:12:23;;;;;;;0.00;0.00;;;;;;;18.82;100.00;96914.25;5058951;28;20966;-80
2023/07/09 02:15:09;;;;;;;0.00;0.00;;;;;;;18.83;100.00;96905.00;5049534;28;20072;-80
2023/07/09 02:17:55;;;;;;;0.00;0.00;;;;;;;18.84;100.00;96907.47;5057128;28;20044;-80
2023/07/09 02:20:41;;;;;;;0.00;0.00;;;;;;;18.89;100.00;96901.16;5070196;28;20031;-80
2023/07/09 02:23:28;;;;;;;0.00;0.00;;;;;;;18.90;100.00;96895.44;5043778;28;20032;-80
2023/07/09 02:26:14;;;;;;;0.10;0.10;;;;;;;18.95;100.00;96899.19;5072179;28;20600;-80
2023/07/09 02:28:59;;;;;;;0.00;0.00;;;;;;;18.96;100.00;96898.09;5057496;28;20209;-80
2023/07/09 02:31:50;;;;;;;0.00;0.00;;;;;;;18.93;100.00;96902.19;5055929;28;20039;-79
2023/07/09 02:34:36;;;;;;;0.00;0.00;;;;;;;18.90;100.00;96902.75;5070739;28;20098;-80
2023/07/09 02:37:26;;;;;;;0.08;0.08;;;;;;;18.79;100.00;96904.00;5059734;28;20065;-80
2023/07/09 02:40:13;;;;;;;0.10;0.10;;;;;;;18.66;100.00;96908.19;5061467;28;20040;-80
2023/07/09 02:42:59;;;;;;;0.00;0.00;;;;;;;18.60;100.00;96903.94;5062946;28;20028;-78
2023/07/09 02:45:45;;;;;;;0.10;0.10;;;;;;;18.60;100.00;96914.78;5074333;28;20063;-80
2023/07/09 02:48:31;;;;;;;0.00;0.00;;;;;;;18.63;100.00;96906.84;5075991;28;20128;-81
2023/07/09 02:51:17;;;;;;;0.08;0.08;;;;;;;18.60;100.00;96912.06;5061773;28;20063;-80
2023/07/09 02:54:03;;;;;;;0.10;0.10;;;;;;;18.48;100.00;96923.28;5045230;28;20032;-80
2023/07/09 02:56:49;;;;;;;0.00;0.00;;;;;;;18.36;100.00;96923.69;5072056;28;20085;-81
2023/07/09 02:59:35;;;;;;;0.03;0.03;;;;;;;18.32;100.00;96916.41;5046162;28;20131;-80
2023/07/09 03:02:21;;;;;;;0.00;0.00;;;;;;;18.43;100.00;96931.47;5057749;28;20047;-80
2023/07/09 03:05:10;;;;;;;0.00;0.00;;;;;;;18.37;100.00;96921.78;5055234;28;20044;-80
2023/07/09 03:07:55;;;;;;;0.00;0.00;;;;;;;18.38;100.00;96926.13;5055418;28;20038;-78
2023/07/09 03:10:41;;;;;;;0.00;0.00;;;;;;;18.45;100.00;96937.41;5070799;28;20391;-78
2023/07/09 03:13:27;;;;;;;0.00;0.00;;;;;;;18.36;100.00;96928.28;5056616;28;20045;-78
2023/07/09 03:16:14;;;;;;;0.00;0.00;;;;;;;18.28;100.00;96937.03;5069615;28;20525;-78
2023/07/09 03:19:01;;;;;;;0.00;0.00;;;;;;;18.18;100.00;96939.84;5057606;28;20036;-78
2023/07/09 03:21:47;;;;;;;0.10;0.10;;;;;;;18.02;100.00;96939.97;5055778;28;20046;-80
2023/07/09 03:24:33;;;;;;;0.05;0.05;;;;;;;17.84;100.00;96943.41;5068512;28;20115;-80
2023/07/09 03:27:19;;;;;;;0.00;0.00;;;;;;;17.91;100.00;96943.88;5071314;28;20028;-79
2023/07/09 03:30:05;;;;;;;0.00;0.00;;;;;;;17.96;100.00;96946.53;5070593;28;20510;-79
2023/07/09 03:32:51;;;;;;;0.00;0.00;;;;;;;17.89;100.00;96943.34;5055396;28;22489;-79
2023/07/09 03:35:40;;;;;;;0.00;0.00;;;;;;;17.84;100.00;96940.69;5056530;28;20054;-79
2023/07/09 03:38:27;;;;;;;0.00;0.00;;;;;;;17.83;100.00;96946.38;5071270;28;20756;-79
2023/07/09 03:41:13;;;;;;;0.10;0.10;;;;;;;17.88;100.00;96949.84;5056358;28;20052;-79
2023/07/09 03:43:58;;;;;;;0.10;0.10;;;;;;;18.02;100.00;96952.72;5068840;28;20567;-79
2023/07/09 03:46:44;;;;;;;0.10;0.10;;;;;;;18.15;100.00;96952.06;5070221;28;20036;-79
2023/07/09 03:49:30;;;;;;;0.00;0.00;;;;;;;18.12;100.00;96954.53;5069035;28;20655;-80
2023/07/09 03:52:17;;;;;;;0.05;0.05;;;;;;;18.11;100.00;96959.13;5041005;28;20568;-80
2023/07/09 03:55:04;;;;;;;0.10;0.10;;;;;;;18.15;100.00;96957.47;5056605;28;20055;-80
2023/07/09 03:57:50;;;;;;;0.03;0.03;;;;;;;18.21;100.00;96966.34;5071156;28;20051;-80
2023/07/09 04:00:38;;;;;;;0.00;0.00;;;;;;;18.01;100.00;96957.31;5042793;28;20064;-80
2023/07/09 04:03:24;;;;;;;0.10;0.10;;;;;;;18.11;100.00;96956.41;5049004;28;20028;-79
2023/07/09 04:06:10;;;;;;;0.00;0.00;;;;;;;18.09;100.00;96959.41;5074718;28;20113;-80
2023/07/09 04:08:56;;;;;;;0.00;0.00;;;;;;;17.99;100.00;96956.00;5073034;28;20036;-80
2023/07/09 04:11:42;;;;;;;0.00;0.00;;;;;;;18.07;100.00;96963.50;5060438;28;20036;-80
2023/07/09 04:14:28;;;;;;;0.08;0.08;;;;;;;18.08;100.00;96960.53;5075385;28;20032;-80
2023/07/09 04:17:14;;;;;;;0.00;0.00;;;;;;;18.08;100.00;96965.94;5062046;28;20530;-80
2023/07/09 04:19:59;;;;;;;0.10;0.10;;;;;;;17.98;100.00;96967.94;5057137;28;20036;-80
2023/07/09 04:22:46;;;;;;;0.10;0.10;;;;;;;18.08;100.00;96968.63;5059549;28;20047;-80
2023/07/09 04:25:31;;;;;;;0.10;0.10;;;;;;;18.13;100.00;96969.66;5062372;28;20032;-80
2023/07/09 04:28:17;;;;;;;0.00;0.00;;;;;;;18.09;100.00;96964.84;5071449;28;20133;-80
2023/07/09 04:31:03;;;;;;;0.00;0.00;;;;;;;18.22;100.00;96962.56;5074348;28;20040;-80
2023/07/09 04:33:52;;;;;;;0.03;0.03;;;;;;;18.29;100.00;96965.75;5072373;28;20079;-80
2023/07/09 04:36:38;;;;;;;0.00;0.00;;;;;;;18.32;100.00;96968.69;5075711;28;20390;-80
2023/07/09 04:39:24;;;;;;;0.10;0.10;;;;;;;18.40;100.00;96964.56;5055185;28;21021;-80
2023/07/09 04:42:15;;;;;;;0.10;0.10;;;;;;;18.48;100.00;96971.25;5075145;28;20137;-80
2023/07/09 04:45:01;;;;;;;;;;;;;;;18.47;100.00;96961.50;5074992;28;20119;-80
2023/07/09 04:47:47;;;;;;;0.10;0.10;;;;;;;18.54;100.00;96954.66;5074361;28;19920;-80
2023/07/09 04:50:34;;;;;;;0.00;0.00;;;;;;;18.68;100.00;96964.81;5058415;28;20499;-80
2023/07/09 04:53:23;;;;;;;0.10;0.10;;;;;;;18.78;100.00;96962.03;5076687;28;20287;-79
2023/07/09 04:56:11;;;;;;;0.08;0.08;;;;;;;18.89;100.00;96964.31;5076829;28;20075;-80
2023/07/09 04:58:57;;;;;;;0.00;0.00;;;;;;;19.06;100.00;96960.31;5059572;28;20040;-79
2023/07/09 05:01:43;;;;;;;0.10;0.10;;;;;;;19.14;100.00;96948.81;5059121;28;20441;-79
2023/07/09 05:04:29;;;;;;;0.10;0.10;;;;;;;19.31;100.00;96951.88;5046714;28;20032;-80
2023/07/09 05:07:15;;;;;;;0.00;0.00;;;;;;;19.46;100.00;96957.06;5053765;28;20043;-79
2023/07/09 05:10:02;;;;;;;0.00;0.00;;;;;;;19.55;100.00;96946.38;5059105;28;20119;-79
2023/07/09 05:12:53;;;;;;;0.10;0.10;;;;;;;19.73;100.00;96956.44;5058293;28;20047;-80
2023/07/09 05:15:44;;;;;;;0.05;0.05;;;;;;;19.83;100.00;96947.31;5060488;28;20529;-79
2023/07/09 05:18:30;;;;;;;0.10;0.10;;;;;;;19.89;100.00;96951.56;5058930;28;20853;-79
2023/07/09 05:21:16;;;;;;;0.10;0.10;;;;;;;20.07;100.00;96947.19;5073800;28;20568;-79
2023/07/09 05:24:03;;;;;;;0.10;0.10;;;;;;;20.22;100.00;96943.41;5074092;28;20138;-79
2023/07/09 05:26:50;;;;;;;0.00;0.00;;;;;;;20.39;100.00;96942.84;5075697;28;20051;-79
2023/07/09 05:29:35;;;;;;;0.00;0.00;;;;;;;20.48;100.00;96949.25;5060730;28;20089;-80
2023/07/09 05:32:21;;;;;;;0.10;0.10;;;;;;;20.53;100.00;96940.97;5058899;28;20087;-79
2023/07/09 05:35:08;;;;;;;0.00;0.00;;;;;;;20.67;100.00;96951.88;5053914;28;20047;-79
2023/07/09 05:37:54;;;;;;;0.08;0.08;;;;;;;20.75;100.00;96948.44;5073426;28;20671;-80
2023/07/09 05:40:42;;;;;;;0.03;0.00;;;;;;;20.81;100.00;96942.63;5045739;28;20047;-80
2023/07/09 05:43:27;;;;;;;0.10;0.10;;;;;;;20.82;100.00;96946.94;5061043;28;20040;-79
2023/07/09 05:46:14;;;;;;;0.00;0.00;;;;;;;20.96;100.00;96957.03;5061153;28;20611;-80
2023/07/09 05:49:05;;;;;;;0.10;0.10;;;;;;;21.02;100.00;96958.53;5060524;28;20081;-79
2023/07/09 05:51:51;;;;;;;0.00;0.00;;;;;;;21.06;100.00;96963.03;5060704;28;20241;-80
2023/07/09 05:54:37;;;;;;;0.05;0.05;;;;;;;21.12;100.00;96966.47;5079049;28;20048;-81
2023/07/09 05:57:23;;;;;;;0.03;0.00;;;;;;;21.18;100.00;96953.59;5067888;28;20557;-81
2023/07/09 06:00:10;;;;;;;0.00;0.00;;;;;;;21.24;100.00;96958.59;5061065;28;20101;-81
2023/07/09 06:02:59;;;;;;;0.00;0.00;;;;;;;21.24;100.00;96960.50;5074614;28;20043;-80
2023/07/09 06:05:45;;;;;;;0.05;0.05;;;;;;;21.37;100.00;96965.97;5059339;28;20031;-80
2023/07/09 06:08:31;;;;;;;0.03;0.03;;;;;;;21.42;100.00;96963.13;5056951;28;20143;-80
2023/07/09 06:11:17;;;;;;;0.10;0.10;;;;;;;21.48;100.00;96963.84;5044581;28;20846;-81
2023/07/09 06:14:03;;;;;;;0.00;0.00;;;;;;;21.60;100.00;96968.72;5058616;28;20032;-81
2023/07/09 06:16:49;;;;;;;0.10;0.10;;;;;;;21.66;100.00;96964.78;5056656;28;20109;-81
2023/07/09 06:19:35;;;;;;;0.00;0.00;;;;;;;21.76;100.00;96972.72;5059191;28;20032;-81
2023/07/09 06:22:21;;;;;;;0.05;0.05;;;;;;;21.87;100.00;96970.56;5059334;28;20036;-81
2023/07/09 06:25:07;;;;;;;0.10;0.10;;;;;;;21.99;100.00;96970.81;5061264;28;20065;-80
2023/07/09 06:27:53;;;;;;;0.10;0.10;;;;;;;22.04;100.00;96972.63;5044059;28;20044;-81
2023/07/09 06:30:39;;;;;;;0.10;0.10;;;;;;;22.10;100.00;96966.78;5047249;28;20040;-80
2023/07/09 06:33:28;;;;;;;0.03;0.03;;;;;;;22.14;100.00;96965.03;5047466;28;20043;-80
2023/07/09 06:36:14;;;;;;;0.00;0.00;;;;;;;22.20;100.00;96971.16;5059508;28;20123;-81
2023/07/09 06:39:00;;;;;;;0.05;0.05;;;;;;;22.36;100.00;96985.22;5039049;28;20039;-81
2023/07/09 06:41:45;;;;;;;0.10;0.10;;;;;;;22.41;100.00;96977.72;5043929;28;21677;-80
2023/07/09 06:44:51;;;;;;;0.10;0.10;;;;;;;22.49;100.00;96978.88;5055122;28;20044;-80
2023/07/09 06:47:37;;;;;;;0.10;0.10;;;;;;;22.67;100.00;96983.28;5059073;28;20048;-79
2023/07/09 06:50:23;;;;;;;0.08;0.00;;;;;;;22.72;100.00;96965.97;5057466;28;20047;-80
2023/07/09 06:53:09;;;;;;;0.10;0.10;;;;;;;22.83;100.00;96972.78;5056689;28;20418;-79
2023/07/09 06:55:58;;;;;;;0.00;0.00;;;;;;;22.91;100.00;96985.69;5043640;28;20115;-81
2023/07/09 06:58:46;;;;;;;0.00;0.00;;;;;;;23.04;100.00;96981.25;5041826;28;20051;-78
2023/07/09 07:01:32;;;;;;;0.10;0.10;;;;;;;23.09;100.00;96986.53;5037315;28;20118;-79
2023/07/09 07:04:18;;;;;;;0.00;0.00;;;;;;;23.18;100.00;96984.63;5071034;28;20533;-80
2023/07/09 07:07:04;;;;;;;0.00;0.00;;;;;;;23.27;100.00;96981.94;5055851;28;20046;-79
2023/07/09 07:09:50;;;;;;;0.00;0.00;;;;;;;23.35;100.00;96972.97;5042386;28;20409;-79
2023/07/09 07:12:44;;;;;;;0.10;0.10;;;;;;;23.49;100.00;96976.34;5036019;28;20118;-80
2023/07/09 07:15:30;;;;;;;0.00;0.00;;;;;;;23.62;100.00;96974.63;5058523;28;20039;-80
2023/07/09 07:18:26;;;;;;;0.00;0.00;;;;;;;23.77;100.00;96978.84;5044724;28;20046;-79
2023/07/09 07:21:11;;;;;;;0.00;0.00;;;;;;;23.86;100.00;96972.22;5057053;28;20477;-79
2023/07/09 07:23:57;;;;;;;0.00;0.00;;;;;;;24.00;100.00;96969.34;5056010;28;20864;-78
2023/07/09 07:26:43;;;;;;;0.10;0.10;;;;;;;24.07;100.00;96972.41;5034400;28;20126;-79
2023/07/09 07:29:30;;;;;;;0.10;0.10;;;;;;;24.11;100.00;96978.81;5057529;28;20105;-79
2023/07/09 07:32:16;;;;;;;0.00;0.00;;;;;;;24.16;100.00;96964.97;5044097;28;20036;-79
2023/07/09 07:35:02;;;;;;;0.10;0.10;;;;;;;24.28;100.00;96958.03;5045650;28;20040;-79
2023/07/09 07:37:48;;;;;;;0.10;0.10;;;;;;;24.28;100.00;96956.13;5036428;28;20120;-79
2023/07/09 07:40:33;;;;;;;0.00;0.00;;;;;;;24.40;100.00;96960.94;5055617;28;20075;-79
2023/07/09 07:43:19;;;;;;;0.05;0.05;;;;;;;24.35;100.00;96952.91;5056811;28;21022;-78
2023/07/09 07:46:07;;;;;;;0.10;0.10;;;;;;;24.44;100.00;96959.19;5058391;28;20715;-79
2023/07/09 07:48:53;;;;;;;0.00;0.00;;;;;;;24.47;100.00;96955.78;5042077;28;20040;-79
2023/07/09 07:51:39;;;;;;;0.00;0.00;;;;;;;24.71;100.00;96958.75;5043609;28;20032;-79
2023/07/09 07:54:25;;;;;;;0.00;0.00;;;;;;;24.86;100.00;96954.69;5045104;28;20028;-79
2023/07/09 07:57:11;;;;;;;0.00;0.00;;;;;;;25.01;100.00;96961.53;5044359;28;20729;-80
2023/07/09 07:59:57;;;;;;;0.00;0.00;;;;;;;25.07;100.00;96965.72;5039172;28;20395;-80
2023/07/09 08:02:43;;;;;;;0.00;0.00;;;;;;;25.03;100.00;96951.09;5042268;28;20506;-79
2023/07/09 08:05:29;;;;;;;0.10;0.10;;;;;;;25.00;100.00;96960.75;5058463;28;20870;-79
2023/07/09 08:08:15;;;;;;;0.00;0.00;;;;;;;25.10;100.00;96956.03;5040782;28;20538;-80
2023/07/09 08:11:07;;;;;;;0.00;0.00;;;;;;;25.27;100.00;96962.22;5046819;28;20110;-79
2023/07/09 08:13:53;;;;;;;0.05;0.05;;;;;;;25.36;100.00;96961.38;5036957;28;20036;-79
2023/07/09 08:16:39;;;;;;;0.00;0.00;;;;;;;25.39;100.00;96949.75;5050319;28;20098;-80
2023/07/09 08:19:25;;;;;;;0.00;0.00;;;;;;;25.55;100.00;96950.78;5037335;28;20410;-80
2023/07/09 08:22:11;;;;;;;0.00;0.00;;;;;;;25.73;100.00;96946.00;5050733;28;20128;-80
2023/07/09 08:24:57;;;;;;;0.10;0.10;;;;;;;25.87;100.00;96956.69;5056982;28;20736;-80
2023/07/09 08:27:46;;;;;;;0.00;0.00;;;;;;;25.94;100.00;96965.97;5040888;28;20049;-79
2023/07/09 08:30:32;;;;;;;0.00;0.00;;;;;;;25.96;100.00;96963.69;5037784;28;20048;-79
2023/07/09 08:33:18;;;;;;;0.00;0.00;;;;;;;25.95;100.00;96962.09;5057755;28;20047;-80
2023/07/09 08:36:04;;;;;;;0.00;0.00;;;;;;;26.04;100.00;96964.75;5055664;28;20879;-79
2023/07/09 08:38:50;;;;;;;0.00;0.00;;;;;;;26.18;100.00;96959.78;5047597;28;20044;-80
2023/07/09 08:41:59;;;;;;;0.00;0.00;;;;;;;26.29;100.00;96955.47;5072074;28;20047;-80
2023/07/09 08:44:50;;;;;;;0.10;0.10;;;;;;;26.44;100.00;96956.00;5037952;28;20035;-79
2023/07/09 08:47:57;;;;;;;0.00;0.00;;;;;;;26.52;100.00;96964.16;5071271;28;20036;-79
2023/07/09 08:50:48;;;;;;;0.00;0.00;;;;;;;26.45;100.00;96949.38;5072273;28;20078;-79
2023/07/09 08:53:41;;;;;;;0.00;0.00;;;;;;;26.50;100.00;96957.41;5052594;28;20732;-79
2023/07/09 08:56:32;;;;;;;0.00;0.00;;;;;;;26.64;100.00;96957.91;5077053;28;20687;-79
2023/07/09 08:59:19;;;;;;;0.00;0.00;;;;;;;26.91;100.00;96959.97;5064788;28;20040;-80
2023/07/09 09:02:21;;;;;;;0.00;0.00;;;;;;;26.89;100.00;96962.25;5083938;28;20347;-79
2023/07/09 09:05:08;;;;;;;0.00;0.00;;;;;;;27.11;99.35;96957.50;5084070;28;20036;-79
2023/07/09 09:08:03;;;;;;;0.00;0.00;;;;;;;27.30;96.81;96956.91;5049342;28;20464;-79
2023/07/09 09:11:11;;;;;;;0.00;0.00;;;;;;;27.45;97.86;96957.00;5062771;28;20067;-79
2023/07/09 09:14:03;;;;;;;0.00;0.00;;;;;;;27.51;94.42;96954.03;5055169;28;20040;-79
2023/07/09 09:16:50;;;;;;;0.00;0.00;;;;;;;27.63;95.71;96945.78;5059541;28;20044;-79
2023/07/09 09:19:53;;;;;;;0.05;0.00;;;;;;;27.63;94.71;96957.56;5048053;28;20044;-79
2023/07/09 09:22:54;;;;;;;0.00;0.00;;;;;;;27.77;94.50;96948.94;5060282;28;20123;-79
2023/07/09 09:25:45;;;;;;;0.10;0.10;;;;;;;27.74;93.58;96963.41;5060160;28;20040;-79
2023/07/09 09:28:35;;;;;;;;;;;;;;;27.98;93.80;96960.56;5045701;28;20035;-79
2023/07/09 09:31:21;;;;;;;0.05;0.05;;;;;;;28.00;94.94;96952.78;5058445;28;19919;-80
2023/07/09 09:34:21;;;;;;;0.10;0.10;;;;;;;28.21;93.37;96947.06;5060565;28;20036;-79
2023/07/09 09:37:11;;;;;;;0.00;0.00;;;;;;;28.40;92.12;96945.63;5059771;28;20036;-79
2023/07/09 09:40:00;;;;;;;0.03;0.03;;;;;;;28.51;90.35;96944.78;5059299;28;20051;-79
2023/07/09 09:42:47;;;;;;;0.00;0.00;;;;;;;28.65;90.25;96949.06;5047053;28;20051;-79
2023/07/09 09:45:37;;;;;;;0.00;0.00;;;;;;;28.56;88.97;96944.53;5062567;28;20040;-79
2023/07/09 09:48:29;;;;;;;0.00;0.00;;;;;;;28.74;88.65;96950.47;5059695;28;20048;-79
2023/07/09 09:51:18;;;;;;;0.00;0.00;;;;;;;29.01;86.58;96953.50;5059815;28;20402;-80
2023/07/09 09:54:13;;;;;;;0.10;0.10;;;;;;;29.11;88.67;96959.31;5044252;28;20585;-80
2023/07/09 09:56:59;;;;;;;0.00;0.00;;;;;;;29.38;88.23;96951.25;5053174;28;20067;-79
2023/07/09 09:59:46;;;;;;;0.00;0.00;;;;;;;29.36;85.45;96959.88;5060409;28;20109;-80
2023/07/09 10:02:41;;;;;;;0.00;0.00;;;;;;;29.27;79.13;96955.72;5058580;28;20048;-80
2023/07/09 10:05:34;;;;;;;0.10;0.10;;;;;;;29.52;79.36;96951.63;5045417;28;20121;-80
2023/07/09 10:08:49;;;;;;;0.00;0.00;;;;;;;29.63;80.06;96955.38;5045004;28;20100;-80
2023/07/09 10:12:02;;;;;;;0.00;0.00;;;;;;;29.78;78.70;96941.91;5072485;28;20050;-80
2023/07/09 10:15:26;;;;;;;0.00;0.00;;;;;;;30.22;82.68;96953.50;5058916;28;20094;-80
2023/07/09 10:18:51;;;;;;;0.10;0.10;;;;;;;30.06;78.00;96941.72;5072864;28;20047;-80
2023/07/09 10:21:58;;;;;;;0.00;0.00;;;;;;;30.52;76.47;96937.91;5048139;28;20502;-80
2023/07/09 10:25:29;;;;;;;0.00;0.00;;;;;;;30.72;77.75;96940.63;5044722;28;20032;-80
2023/07/09 10:28:40;;;;;;;0.00;0.00;;;;;;;30.89;73.41;96934.59;5037503;28;20063;-80
2023/07/09 10:31:35;;;;;;;0.08;0.08;;;;;;;30.78;72.87;96934.44;5044190;28;20065;-80
2023/07/09 10:34:30;;;;;;;0.00;0.00;;;;;;;30.93;76.93;96929.94;5038947;28;20052;-80
2023/07/09 10:37:32;;;;;;;0.00;0.00;;;;;;;31.12;65.87;96929.06;5052320;28;20528;-80
2023/07/09 10:40:28;;;;;;;0.00;0.00;;;;;;;31.48;67.90;96922.13;5040644;28;20048;-80
2023/07/09 10:43:28;;;;;;;0.00;0.00;;;;;;;31.43;63.99;96916.91;5056571;28;20078;-80
2023/07/09 10:46:18;;;;;;;0.00;0.00;;;;;;;31.71;65.15;96924.81;5059191;28;20046;-80
2023/07/09 10:49:09;;;;;;;0.00;0.00;;;;;;;31.57;62.11;96921.84;5057882;28;20050;-80
2023/07/09 10:52:06;;;;;;;0.00;0.00;;;;;;;31.55;64.71;96926.97;5056883;28;20552;-80
2023/07/09 10:55:18;;;;;;;0.00;0.00;;;;;;;31.28;61.89;96940.00;5038241;28;20040;-80
2023/07/09 10:58:26;;;;;;;0.10;0.10;;;;;;;31.91;59.05;96922.75;5017065;28;20629;-80
2023/07/09 11:01:15;;;;;;;0.05;0.05;;;;;;;32.35;55.80;96931.16;5042821;28;20036;-81
2023/07/09 11:04:10;;;;;;;0.05;0.05;;;;;;;32.78;57.25;96925.28;5044208;28;20036;-81
2023/07/09 11:07:00;;;;;;;0.00;0.00;;;;;;;33.26;57.84;96917.75;5035574;28;20119;-81
2023/07/09 11:09:49;;;;;;;0.00;0.00;;;;;;;32.93;52.26;96919.50;5057236;28;20047;-81
2023/07/09 11:12:42;;;;;;;0.00;0.00;;;;;;;32.84;57.58;96921.78;5043443;28;20510;-80
2023/07/09 11:15:35;;;;;;;0.00;0.00;;;;;;;33.29;58.39;96921.72;5067101;28;20051;-81
2023/07/09 11:18:24;;;;;;;0.00;0.00;;;;;;;33.92;52.33;96918.56;5057290;28;20035;-81
2023/07/09 11:21:17;;;;;;;0.10;0.10;;;;;;;33.88;49.49;96923.28;5055345;28;20155;-81
2023/07/09 11:24:06;;;;;;;0.03;0.03;;;;;;;33.73;45.32;96910.53;5049452;28;20024;-80
2023/07/09 11:26:51;;;;;;;0.00;0.00;;;;;;;34.27;45.26;96904.00;5042512;28;20040;-81
2023/07/09 11:29:47;;;;;;;0.00;0.00;;;;;;;34.42;43.97;96904.88;5057454;28;20050;-81
2023/07/09 11:32:33;;;;;;;0.00;0.00;;;;;;;35.30;39.30;96900.53;5039754;28;20032;-79
2023/07/09 11:35:27;;;;;;;0.10;0.10;;;;;;;36.87;36.58;96901.88;5058854;28;20055;-81
2023/07/09 11:38:19;;;;;;;0.00;0.00;;;;;;;37.38;31.48;96889.09;5057803;28;20337;-81
2023/07/09 11:41:34;;;;;;;0.10;0.10;;;;;;;38.84;28.22;96887.25;5056006;28;20400;-81
2023/07/09 11:44:28;;;;;;;0.10;0.10;;;;;;;38.93;28.80;96884.69;5057696;28;20058;-81
2023/07/09 11:47:22;;;;;;;0.00;0.00;;;;;;;40.44;26.39;96869.34;5043214;28;20039;-81
2023/07/09 11:50:28;;;;;;;0.10;0.10;;;;;;;41.45;24.41;96869.28;5056965;28;20102;-81
2023/07/09 11:53:29;;;;;;;0.10;0.10;;;;;;;41.62;23.32;96870.81;5035826;28;20039;-81
2023/07/09 11:56:19;;;;;;;0.10;0.10;;;;;;;42.52;24.09;96871.81;5045107;28;20031;-81
2023/07/09 11:59:05;;;;;;;0.00;0.00;;;;;;;43.31;21.21;96876.44;5058046;28;21073;-81
2023/07/09 12:01:54;;;;;;;0.00;0.00;;;;;;;43.35;22.41;96879.16;5048534;28;20044;-82
2023/07/09 12:04:40;;;;;;;0.10;0.10;;;;;;;44.80;21.45;96877.75;5059372;28;20075;-81
2023/07/09 12:07:29;;;;;;;0.05;0.05;;;;;;;42.53;21.82;96882.59;5057938;28;20300;-81
2023/07/09 12:10:22;;;;;;;0.00;0.00;;;;;;;41.18;23.16;96863.97;5077190;28;20101;-81
2023/07/09 12:13:12;;;;;;;0.00;0.00;;;;;;;42.84;23.12;96879.22;5057963;28;20044;-80
2023/07/09 12:15:57;;;;;;;0.10;0.10;;;;;;;42.20;20.37;96867.97;5043386;28;20450;-81
2023/07/09 12:18:43;;;;;;;0.10;0.10;;;;;;;44.53;20.14;96857.88;5057902;28;20040;-81
2023/07/09 12:21:31;;;;;;;0.05;0.05;;;;;;;46.61;17.19;96849.09;5044170;28;20776;-82
2023/07/09 12:24:30;;;;;;;0.10;0.10;;;;;;;46.07;17.42;96852.88;5053675;28;20032;-82
2023/07/09 12:27:25;;;;;;;0.10;0.10;;;;;;;44.08;18.97;96853.56;5062115;28;20075;-81
2023/07/09 12:30:12;;;;;;;0.10;0.10;;;;;;;43.20;19.28;96847.09;5048241;28;20592;-82
2023/07/09 12:32:58;;;;;;;0.10;0.10;;;;;;;42.90;19.32;96835.22;5047855;28;20739;-82
2023/07/09 12:35:53;;;;;;;0.10;0.10;;;;;;;44.02;19.04;96832.88;5047094;28;20123;-80
2023/07/09 12:38:46;;;;;;;0.10;0.10;;;;;;;43.88;18.87;96849.06;5059237;28;20032;-82
2023/07/09 12:41:38;;;;;;;0.10;0.10;;;;;;;45.00;19.24;96826.56;5073656;28;20457;-81
2023/07/09 12:44:25;;;;;;;0.10;0.10;;;;;;;45.34;17.99;96822.66;5059487;28;20032;-82
2023/07/09 12:47:23;;;;;;;0.10;0.10;;;;;;;45.49;18.80;96823.59;5061542;28;20850;-82
2023/07/09 12:50:29;;;;;;;0.10;0.10;;;;;;;43.84;20.03;96831.53;5061884;28;20047;-82
2023/07/09 12:53:18;;;;;;;0.00;0.00;;;;;;;42.42;21.60;96819.53;5073716;28;20036;-82
2023/07/09 12:56:12;;;;;;;0.07;0.07;;;;;;;42.48;22.12;96820.50;5053463;28;20137;-82
2023/07/09 12:58:58;;;;;;;0.10;0.10;;;;;;;43.66;21.10;96817.28;5059380;28;20303;-82
2023/07/09 13:02:07;;;;;;;0.03;0.03;;;;;;;45.21;19.52;96811.50;5058589;28;20051;-82
2023/07/09 13:05:05;;;;;;;0.10;0.10;;;;;;;46.81;17.63;96817.38;5044529;28;20035;-82
2023/07/09 13:07:54;;;;;;;0.08;0.08;;;;;;;47.92;17.03;96811.63;5041161;28;20148;-82
2023/07/09 13:10:41;;;;;;;0.00;0.00;;;;;;;48.73;16.51;96800.59;5045384;28;20793;-82
2023/07/09 13:13:27;;;;;;;0.10;0.10;;;;;;;48.89;16.26;96807.00;5058240;28;20036;-82